createdAt,value
2023-05-13T00:00:07.960Z,79.14
2023-05-13T00:01:07.966Z,79.33
2023-05-13T00:02:08.061Z,79.05
2023-05-13T00:03:08.215Z,78.76
2023-05-13T00:04:08.074Z,78.76
2023-05-13T00:05:08.070Z,78.76
2023-05-13T00:06:08.112Z,79.05
2023-05-13T00:07:08.123Z,78.47
2023-05-13T00:08:08.151Z,78.86
2023-05-13T00:09:08.165Z,78.76
2023-05-13T00:10:08.189Z,78.76
2023-05-13T00:11:08.228Z,78.76
2023-05-13T00:12:08.241Z,78.86
2023-05-13T00:13:08.270Z,78.57
2023-05-13T00:14:08.288Z,78.47
2023-05-13T00:15:08.310Z,79.05
2023-05-13T00:16:08.394Z,78.28
2023-05-13T00:17:08.393Z,78.19
2023-05-13T00:18:08.385Z,78.28
2023-05-13T00:19:08.468Z,78.28
2023-05-13T00:20:08.431Z,78.38
2023-05-13T00:21:08.463Z,78.28
2023-05-13T00:22:08.484Z,78.09
2023-05-13T00:23:08.509Z,78.38
2023-05-13T00:24:08.542Z,78.28
2023-05-13T00:25:08.567Z,78.09
2023-05-13T00:26:08.582Z,78.28
2023-05-13T00:27:08.614Z,78.19
2023-05-13T00:28:08.631Z,78.28
2023-05-13T00:29:08.670Z,78.28
2023-05-13T00:30:08.684Z,77.99
2023-05-13T00:31:08.748Z,78.28
2023-05-13T00:32:08.730Z,78.38
2023-05-13T00:33:08.749Z,78.76
2023-05-13T00:34:08.785Z,78.57
2023-05-13T00:35:08.814Z,78.66
2023-05-13T00:36:08.822Z,78.95
2023-05-13T00:37:08.847Z,79.05
2023-05-13T00:38:08.868Z,78.66
2023-05-13T00:39:08.898Z,78.47
2023-05-13T00:40:08.921Z,78.95
2023-05-13T00:41:08.946Z,78.28
2023-05-13T00:42:08.972Z,78.57
2023-05-13T00:43:09.045Z,78.63
2023-05-13T00:44:09.022Z,78.86
2023-05-13T00:45:09.040Z,79.05
2023-05-13T00:46:09.137Z,78.66
2023-05-13T00:47:09.101Z,78.66
2023-05-13T00:48:09.150Z,78.72
2023-05-13T00:49:09.140Z,78.63
2023-05-13T00:50:09.180Z,78.76
2023-05-13T00:51:09.189Z,78.66
2023-05-13T00:52:09.217Z,79.05
2023-05-13T00:53:09.241Z,78.86
2023-05-13T00:54:09.266Z,79.05
2023-05-13T00:55:09.289Z,78.28
2023-05-13T00:56:09.309Z,78.09
2023-05-13T00:57:09.334Z,78.24
2023-05-13T00:58:09.358Z,78.09
2023-05-13T00:59:09.380Z,78.24
2023-05-13T01:00:09.405Z,78.86
2023-05-13T01:01:09.486Z,78.86
2023-05-13T01:02:09.483Z,78.66
2023-05-13T01:03:09.629Z,78.63
2023-05-13T01:04:09.508Z,78.72
2023-05-13T01:05:09.537Z,78.91
2023-05-13T01:06:09.554Z,78.91
2023-05-13T01:07:09.595Z,79.00
2023-05-13T01:08:09.611Z,78.53
2023-05-13T01:09:09.624Z,78.63
2023-05-13T01:10:09.651Z,78.63
2023-05-13T01:11:09.672Z,78.81
2023-05-13T01:12:09.695Z,78.53
2023-05-13T01:13:09.757Z,78.72
2023-05-13T01:14:09.745Z,78.72
2023-05-13T01:15:09.767Z,78.53
2023-05-13T01:16:09.848Z,78.43
2023-05-13T01:17:09.820Z,78.81
2023-05-13T01:18:09.950Z,78.81
2023-05-13T01:19:09.920Z,79.39
2023-05-13T01:20:09.888Z,79.58
2023-05-13T01:21:09.920Z,79.29
2023-05-13T01:22:09.954Z,79.10
2023-05-13T01:23:09.976Z,79.00
2023-05-13T01:24:10.010Z,79.00
2023-05-13T01:25:10.010Z,79.00
2023-05-13T01:26:10.031Z,79.00
2023-05-13T01:27:10.064Z,78.91
2023-05-13T01:28:10.087Z,79.20
2023-05-13T01:29:10.105Z,79.29
2023-05-13T01:30:10.130Z,79.29
2023-05-13T01:31:10.222Z,79.20
2023-05-13T01:32:10.204Z,79.49
2023-05-13T01:33:10.260Z,79.39
2023-05-13T01:34:10.225Z,79.10
2023-05-13T01:35:10.253Z,79.49
2023-05-13T01:36:10.270Z,79.20
2023-05-13T01:37:10.298Z,79.00
2023-05-13T01:38:10.323Z,79.39
2023-05-13T01:39:10.344Z,79.29
2023-05-13T01:40:20.343Z,78.81
2023-05-13T01:41:10.395Z,78.24
2023-05-13T01:42:10.427Z,78.91
2023-05-13T01:43:10.443Z,78.14
2023-05-13T01:44:10.480Z,78.24
2023-05-13T01:45:10.486Z,78.43
2023-05-13T01:46:10.528Z,78.72
2023-05-13T01:47:10.542Z,77.95
2023-05-13T01:48:10.569Z,77.95
2023-05-13T01:49:10.589Z,77.95
2023-05-13T01:50:10.606Z,77.67
2023-05-13T01:51:10.632Z,77.86
2023-05-13T01:52:10.660Z,77.57
2023-05-13T01:53:10.686Z,77.57
2023-05-13T01:54:10.705Z,77.95
2023-05-13T01:55:10.737Z,77.48
2023-05-13T01:56:10.754Z,78.63
2023-05-13T01:57:10.775Z,77.48
2023-05-13T01:58:10.802Z,77.86
2023-05-13T01:59:10.826Z,77.38
2023-05-13T02:00:10.849Z,77.19
2023-05-13T02:01:10.876Z,77.09
2023-05-13T02:02:10.948Z,77.19
2023-05-13T02:03:11.020Z,77.00
2023-05-13T02:04:10.952Z,77.00
2023-05-13T02:05:10.978Z,77.67
2023-05-13T02:06:11.011Z,77.57
2023-05-13T02:07:11.020Z,78.53
2023-05-13T02:08:11.039Z,78.91
2023-05-13T02:09:11.075Z,79.58
2023-05-13T02:10:11.088Z,79.06
2023-05-13T02:11:11.109Z,80.21
2023-05-13T02:12:11.135Z,80.59
2023-05-13T02:13:11.166Z,80.88
2023-05-13T02:14:11.188Z,81.07
2023-05-13T02:15:11.211Z,81.36
2023-05-13T02:16:11.326Z,82.22
2023-05-13T02:17:11.262Z,82.31
2023-05-13T02:18:11.305Z,82.60
2023-05-13T02:19:11.380Z,83.56
2023-05-13T02:20:11.347Z,83.17
2023-05-13T02:21:11.375Z,82.89
2023-05-13T02:22:11.382Z,82.41
2023-05-13T02:23:11.411Z,82.41
2023-05-13T02:24:11.424Z,82.31
2023-05-13T02:25:11.474Z,82.41
2023-05-13T02:26:11.487Z,81.65
2023-05-13T02:27:11.512Z,81.26
2023-05-13T02:28:11.526Z,81.55
2023-05-13T02:29:11.550Z,81.07
2023-05-13T02:30:11.577Z,80.98
2023-05-13T02:31:11.603Z,81.16
2023-05-13T02:32:11.795Z,80.59
2023-05-13T02:33:11.688Z,80.79
2023-05-13T02:34:11.684Z,80.40
2023-05-13T02:35:11.722Z,80.40
2023-05-13T02:36:11.720Z,80.59
2023-05-13T02:37:11.742Z,80.59
2023-05-13T02:38:11.805Z,80.30
2023-05-13T02:39:11.802Z,80.30
2023-05-13T02:40:11.814Z,80.40
2023-05-13T02:41:11.843Z,80.79
2023-05-13T02:42:11.871Z,80.88
2023-05-13T02:43:11.887Z,80.65
2023-05-13T02:44:11.907Z,81.03
2023-05-13T02:45:12.059Z,81.03
2023-05-13T02:46:12.017Z,80.65
2023-05-13T02:47:11.990Z,80.74
2023-05-13T02:48:12.013Z,80.74
2023-05-13T02:49:12.039Z,81.41
2023-05-13T02:50:12.055Z,81.51
2023-05-13T02:51:12.079Z,81.41
2023-05-13T02:52:12.119Z,81.41
2023-05-13T02:53:12.126Z,82.28
2023-05-13T02:54:12.148Z,82.37
2023-05-13T02:55:12.283Z,82.18
2023-05-13T02:56:12.196Z,82.28
2023-05-13T02:57:12.218Z,82.75
2023-05-13T02:58:12.244Z,82.32
2023-05-13T02:59:12.271Z,82.46
2023-05-13T03:00:12.297Z,83.42
2023-05-13T03:01:12.337Z,83.13
2023-05-13T03:02:12.364Z,83.18
2023-05-13T03:03:12.450Z,83.13
2023-05-13T03:04:12.390Z,82.94
2023-05-13T03:05:12.408Z,83.57
2023-05-13T03:06:12.440Z,83.61
2023-05-13T03:07:12.460Z,83.80
2023-05-13T03:08:12.482Z,83.67
2023-05-13T03:09:12.509Z,83.70
2023-05-13T03:10:12.536Z,83.61
2023-05-13T03:11:12.564Z,83.51
2023-05-13T03:12:12.572Z,83.04
2023-05-13T03:13:12.608Z,83.51
2023-05-13T03:14:12.718Z,83.51
2023-05-13T03:15:12.650Z,83.67
2023-05-13T03:16:12.711Z,83.13
2023-05-13T03:17:12.700Z,83.09
2023-05-13T03:18:12.745Z,83.61
2023-05-13T03:19:12.809Z,82.94
2023-05-13T03:20:12.770Z,83.13
2023-05-13T03:21:12.791Z,83.13
2023-05-13T03:22:12.812Z,83.13
2023-05-13T03:23:12.847Z,83.00
2023-05-13T03:24:12.859Z,83.23
2023-05-13T03:25:12.898Z,82.94
2023-05-13T03:26:12.903Z,83.61
2023-05-13T03:27:12.935Z,82.56
2023-05-13T03:28:12.950Z,82.18
2023-05-13T03:29:12.985Z,82.46
2023-05-13T03:30:13.008Z,82.37
2023-05-13T03:31:13.067Z,82.75
2023-05-13T03:32:13.042Z,82.56
2023-05-13T03:33:13.069Z,82.65
2023-05-13T03:34:13.096Z,82.18
2023-05-13T03:35:13.116Z,81.99
2023-05-13T03:36:13.137Z,82.46
2023-05-13T03:37:13.165Z,82.28
2023-05-13T03:38:13.185Z,81.70
2023-05-13T03:39:13.211Z,81.89
2023-05-13T03:40:13.245Z,81.89
2023-05-13T03:41:13.284Z,82.18
2023-05-13T03:42:13.280Z,82.18
2023-05-13T03:43:13.312Z,82.18
2023-05-13T03:44:13.325Z,81.79
2023-05-13T03:45:13.381Z,81.70
2023-05-13T03:46:13.406Z,81.13
2023-05-13T03:47:13.396Z,81.41
2023-05-13T03:48:13.417Z,81.22
2023-05-13T03:49:13.439Z,81.41
2023-05-13T03:50:13.467Z,81.41
2023-05-13T03:51:13.493Z,81.41
2023-05-13T03:52:13.515Z,81.32
2023-05-13T03:53:13.537Z,81.22
2023-05-13T03:54:13.564Z,81.41
2023-05-13T03:55:13.590Z,81.13
2023-05-13T03:56:13.604Z,81.32
2023-05-13T03:57:13.630Z,81.22
2023-05-13T03:58:13.660Z,81.36
2023-05-13T03:59:13.684Z,81.60
2023-05-13T04:00:13.714Z,81.36
2023-05-13T04:01:13.735Z,81.16
2023-05-13T04:02:13.801Z,81.36
2023-05-13T04:03:13.845Z,81.36
2023-05-13T04:04:13.798Z,81.40
2023-05-13T04:05:14.049Z,80.54
2023-05-13T04:06:13.846Z,80.54
2023-05-13T04:07:13.874Z,80.58
2023-05-13T04:08:13.896Z,80.19
2023-05-13T04:09:13.923Z,78.76
2023-05-13T04:10:15.666Z,78.38
2023-05-13T04:11:13.973Z,77.90
2023-05-13T04:12:13.994Z,78.09
2023-05-13T04:13:14.031Z,77.80
2023-05-13T04:14:14.039Z,77.70
2023-05-13T04:15:14.068Z,77.90
2023-05-13T04:16:14.128Z,77.70
2023-05-13T04:17:14.180Z,78.09
2023-05-13T04:18:14.138Z,78.38
2023-05-13T04:19:14.258Z,78.86
2023-05-13T04:20:14.187Z,78.86
2023-05-13T04:21:14.212Z,78.86
2023-05-13T04:22:14.607Z,79.05
2023-05-13T04:23:14.263Z,79.43
2023-05-13T04:24:14.291Z,79.77
2023-05-13T04:25:14.314Z,80.16
2023-05-13T04:26:14.335Z,80.63
2023-05-13T04:27:14.360Z,80.63
2023-05-13T04:28:14.380Z,81.21
2023-05-13T04:29:14.407Z,81.68
2023-05-13T04:30:14.435Z,81.40
2023-05-13T04:31:14.458Z,81.21
2023-05-13T04:32:14.585Z,80.87
2023-05-13T04:33:14.556Z,80.77
2023-05-13T04:34:14.529Z,80.77
2023-05-13T04:35:14.560Z,81.00
2023-05-13T04:36:15.258Z,80.71
2023-05-13T04:37:14.606Z,80.14
2023-05-13T04:38:14.629Z,79.51
2023-05-13T04:39:14.675Z,79.03
2023-05-13T04:40:14.676Z,78.11
2023-05-13T04:41:14.707Z,76.81
2023-05-13T04:42:14.724Z,76.81
2023-05-13T04:43:14.756Z,75.21
2023-05-13T04:44:14.777Z,74.44
2023-05-13T04:45:14.802Z,73.62
2023-05-13T04:46:14.976Z,72.12
2023-05-13T04:47:14.860Z,72.22
2023-05-13T04:48:14.890Z,71.67
2023-05-13T04:49:14.909Z,70.33
2023-05-13T04:50:14.941Z,69.31
2023-05-13T04:51:14.956Z,68.44
2023-05-13T04:52:15.002Z,68.63
2023-05-13T04:53:15.020Z,67.90
2023-05-13T04:54:15.050Z,67.22
2023-05-13T04:55:15.071Z,67.16
2023-05-13T04:56:15.092Z,66.68
2023-05-13T04:57:15.139Z,66.04
2023-05-13T04:58:15.149Z,64.34
2023-05-13T04:59:15.175Z,64.25
2023-05-13T05:00:15.234Z,63.12
2023-05-13T05:01:15.288Z,62.35
2023-05-13T05:02:15.300Z,62.25
2023-05-13T05:03:15.282Z,61.61
2023-05-13T05:04:15.496Z,60.45
2023-05-13T05:05:18.086Z,60.52
2023-05-13T05:06:15.375Z,60.23
2023-05-13T05:07:15.397Z,60.13
2023-05-13T05:08:15.447Z,60.26
2023-05-13T05:09:15.458Z,59.58
2023-05-13T05:10:15.543Z,59.68
2023-05-13T05:11:15.506Z,60.35
2023-05-13T05:12:15.538Z,60.16
2023-05-13T05:13:15.565Z,59.39
2023-05-13T05:14:15.594Z,59.13
2023-05-13T05:15:15.722Z,58.84
2023-05-13T05:16:15.649Z,58.14
2023-05-13T05:17:15.709Z,59.07
2023-05-13T05:18:15.740Z,58.65
2023-05-13T05:19:15.771Z,60.10
2023-05-13T05:20:15.766Z,60.07
2023-05-13T05:21:15.796Z,60.52
2023-05-13T05:22:15.824Z,61.39
2023-05-13T05:23:15.852Z,61.74
2023-05-13T05:24:15.879Z,62.61
2023-05-13T05:25:15.916Z,63.25
2023-05-13T05:26:15.938Z,63.64
2023-05-13T05:27:15.964Z,64.40
2023-05-13T05:28:15.998Z,65.05
2023-05-13T05:29:16.017Z,65.62
2023-05-13T05:30:16.047Z,65.81
2023-05-13T05:31:16.128Z,66.68
2023-05-13T05:32:16.104Z,66.46
2023-05-13T05:33:16.131Z,67.13
2023-05-13T05:34:16.161Z,67.03
2023-05-13T05:35:16.188Z,67.19
2023-05-13T05:36:16.216Z,67.67
2023-05-13T05:37:16.240Z,68.73
2023-05-13T05:38:16.273Z,69.01
2023-05-13T05:39:16.300Z,69.17
2023-05-13T05:40:16.323Z,69.46
2023-05-13T05:41:16.357Z,70.07
2023-05-13T05:42:16.373Z,70.26
2023-05-13T05:43:16.430Z,70.93
2023-05-13T05:44:16.438Z,71.09
2023-05-13T05:45:16.456Z,71.03
2023-05-13T05:46:16.501Z,70.45
2023-05-13T05:47:16.517Z,70.10
2023-05-13T05:48:16.548Z,69.95
2023-05-13T05:49:16.566Z,69.66
2023-05-13T05:50:16.599Z,68.44
2023-05-13T05:51:16.633Z,67.32
2023-05-13T05:52:16.650Z,66.74
2023-05-13T05:53:16.682Z,66.88
2023-05-13T05:54:16.708Z,66.14
2023-05-13T05:55:16.728Z,64.34
2023-05-13T05:56:16.759Z,63.09
2023-05-13T05:57:16.792Z,62.03
2023-05-13T05:58:16.825Z,62.15
2023-05-13T05:59:16.846Z,60.77
2023-05-13T06:00:16.873Z,60.13
2023-05-13T06:01:16.909Z,60.52
2023-05-13T06:02:16.960Z,60.35
2023-05-13T06:03:17.195Z,59.78
2023-05-13T06:04:17.105Z,60.16
2023-05-13T06:05:17.041Z,59.61
2023-05-13T06:06:17.052Z,58.55
2023-05-13T06:07:17.140Z,58.36
2023-05-13T06:08:17.109Z,58.26
2023-05-13T06:09:17.147Z,58.17
2023-05-13T06:10:17.189Z,58.17
2023-05-13T06:11:17.217Z,58.39
2023-05-13T06:12:17.238Z,56.65
2023-05-13T06:13:17.272Z,56.16
2023-05-13T06:14:17.312Z,56.36
2023-05-13T06:15:17.341Z,55.10
2023-05-13T06:16:17.394Z,55.20
2023-05-13T06:17:17.392Z,55.20
2023-05-13T06:18:17.469Z,54.98
2023-05-13T06:19:17.481Z,55.08
2023-05-13T06:20:17.496Z,55.36
2023-05-13T06:21:17.518Z,56.43
2023-05-13T06:22:17.552Z,56.14
2023-05-13T06:23:17.620Z,56.62
2023-05-13T06:24:17.618Z,56.91
2023-05-13T06:25:17.653Z,56.24
2023-05-13T06:26:17.697Z,55.36
2023-05-13T06:27:17.712Z,54.88
2023-05-13T06:28:17.741Z,55.08
2023-05-13T06:29:17.790Z,55.10
2023-05-13T06:30:17.806Z,55.01
2023-05-13T06:31:17.839Z,54.53
2023-05-13T06:32:17.868Z,54.62
2023-05-13T06:33:17.931Z,54.31
2023-05-13T06:34:17.937Z,54.40
2023-05-13T06:35:17.974Z,54.98
2023-05-13T06:36:17.999Z,54.79
2023-05-13T06:37:18.034Z,55.18
2023-05-13T06:38:18.065Z,55.56
2023-05-13T06:39:18.110Z,55.49
2023-05-13T06:40:18.136Z,56.16
2023-05-13T06:41:18.167Z,55.68
2023-05-13T06:42:18.204Z,55.42
2023-05-13T06:43:18.232Z,55.35
2023-05-13T06:44:18.266Z,54.87
2023-05-13T06:45:18.313Z,54.29
2023-05-13T06:46:18.359Z,54.22
2023-05-13T06:47:18.479Z,53.06
2023-05-13T06:48:18.398Z,53.25
2023-05-13T06:49:18.430Z,52.45
2023-05-13T06:50:18.533Z,53.61
2023-05-13T06:51:18.500Z,53.49
2023-05-13T06:52:18.530Z,53.97
2023-05-13T06:53:18.560Z,55.35
2023-05-13T06:54:18.601Z,55.07
2023-05-13T06:55:18.638Z,54.58
2023-05-13T06:56:18.663Z,54.68
2023-05-13T06:57:18.704Z,54.13
2023-05-13T06:58:18.801Z,53.61
2023-05-13T06:59:18.769Z,54.19
2023-05-13T07:00:18.948Z,53.74
2023-05-13T07:01:18.876Z,53.61
2023-05-13T07:02:18.866Z,53.55
2023-05-13T07:03:18.927Z,53.74
2023-05-13T07:04:19.122Z,53.64
2023-05-13T07:05:18.992Z,53.55
2023-05-13T07:06:19.011Z,53.74
2023-05-13T07:07:19.080Z,53.93
2023-05-13T07:08:19.100Z,53.45
2023-05-13T07:09:19.108Z,52.67
2023-05-13T07:10:19.279Z,52.99
2023-05-13T07:11:19.258Z,53.67
2023-05-13T07:12:19.241Z,52.39
2023-05-13T07:13:19.246Z,52.26
2023-05-13T07:14:19.277Z,52.53
2023-05-13T07:15:19.412Z,53.20
2023-05-13T07:16:19.347Z,54.43
2023-05-13T07:17:19.421Z,56.43
2023-05-13T07:18:19.488Z,56.72
2023-05-13T07:19:19.583Z,56.49
2023-05-13T07:20:19.759Z,56.98
2023-05-13T07:21:19.507Z,57.05
2023-05-13T07:22:19.539Z,58.20
2023-05-13T07:23:19.573Z,59.07
2023-05-13T07:24:19.611Z,59.27
2023-05-13T07:25:19.645Z,60.52
2023-05-13T07:26:19.664Z,60.52
2023-05-13T07:27:19.694Z,60.32
2023-05-13T07:28:19.748Z,60.71
2023-05-13T07:29:19.762Z,60.13
2023-05-13T07:30:19.861Z,60.42
2023-05-13T07:31:19.937Z,60.10
2023-05-13T07:32:19.876Z,60.10
2023-05-13T07:33:19.882Z,60.49
2023-05-13T07:34:19.910Z,60.39
2023-05-13T07:35:20.073Z,60.10
2023-05-13T07:36:19.968Z,60.65
2023-05-13T07:37:19.998Z,59.97
2023-05-13T07:38:20.028Z,60.36
2023-05-13T07:39:20.068Z,60.65
2023-05-13T07:40:20.398Z,60.75
2023-05-13T07:41:20.116Z,60.75
2023-05-13T07:42:20.149Z,61.32
2023-05-13T07:43:20.184Z,61.32
2023-05-13T07:44:20.209Z,61.13
2023-05-13T07:45:20.520Z,61.32
2023-05-13T07:46:20.319Z,60.75
2023-05-13T07:47:20.477Z,60.46
2023-05-13T07:48:20.318Z,61.04
2023-05-13T07:49:20.374Z,60.24
2023-05-13T07:50:20.382Z,60.65
2023-05-13T07:51:20.407Z,60.81
2023-05-13T07:52:20.440Z,61.87
2023-05-13T07:53:20.465Z,62.00
2023-05-13T07:54:20.536Z,61.42
2023-05-13T07:55:20.800Z,61.80
2023-05-13T07:56:20.551Z,61.90
2023-05-13T07:57:20.587Z,61.42
2023-05-13T07:58:20.616Z,61.22
2023-05-13T07:59:20.642Z,61.42
2023-05-13T08:00:20.678Z,61.22
2023-05-13T08:01:20.697Z,60.65
2023-05-13T08:02:20.768Z,60.72
2023-05-13T08:03:20.823Z,61.42
2023-05-13T08:04:20.920Z,62.09
2023-05-13T08:05:21.131Z,61.90
2023-05-13T08:06:20.845Z,61.71
2023-05-13T08:07:20.875Z,61.13
2023-05-13T08:08:20.906Z,61.04
2023-05-13T08:09:20.926Z,61.22
2023-05-13T08:10:20.965Z,60.55
2023-05-13T08:11:20.993Z,61.71
2023-05-13T08:12:21.016Z,62.00
2023-05-13T08:13:21.043Z,62.29
2023-05-13T08:14:21.070Z,62.29
2023-05-13T08:15:21.385Z,61.13
2023-05-13T08:16:21.163Z,62.19
2023-05-13T08:17:21.262Z,63.73
2023-05-13T08:18:21.199Z,64.69
2023-05-13T08:19:21.315Z,63.82
2023-05-13T08:20:21.254Z,64.05
2023-05-13T08:21:21.267Z,63.28
2023-05-13T08:22:21.311Z,62.22
2023-05-13T08:23:24.555Z,62.12
2023-05-13T08:24:21.355Z,63.28
2023-05-13T08:25:21.661Z,63.76
2023-05-13T08:26:21.419Z,64.34
2023-05-13T08:27:21.439Z,64.34
2023-05-13T08:28:21.476Z,65.01
2023-05-13T08:29:21.500Z,65.43
2023-05-13T08:30:21.534Z,65.33
2023-05-13T08:31:21.605Z,64.95
2023-05-13T08:32:21.711Z,64.43
2023-05-13T08:33:21.618Z,64.37
2023-05-13T08:34:21.656Z,64.47
2023-05-13T08:35:21.880Z,61.48
2023-05-13T08:36:21.714Z,60.20
2023-05-13T08:37:21.728Z,60.97
2023-05-13T08:38:21.761Z,62.93
2023-05-13T08:39:21.804Z,63.12
2023-05-13T08:40:21.831Z,63.70
2023-05-13T08:41:22.235Z,64.47
2023-05-13T08:42:21.876Z,64.28
2023-05-13T08:43:21.903Z,63.60
2023-05-13T08:44:21.950Z,63.70
2023-05-13T08:45:22.159Z,62.15
2023-05-13T08:46:22.015Z,60.03
2023-05-13T08:47:22.044Z,60.32
2023-05-13T08:48:22.047Z,60.52
2023-05-13T08:49:22.095Z,60.61
2023-05-13T08:50:22.271Z,61.58
2023-05-13T08:51:22.173Z,61.87
2023-05-13T08:52:22.166Z,61.48
2023-05-13T08:53:22.195Z,59.36
2023-05-13T08:54:23.988Z,59.65
2023-05-13T08:55:22.462Z,59.75
2023-05-13T08:56:22.291Z,60.13
2023-05-13T08:57:22.312Z,61.38
2023-05-13T08:58:22.348Z,61.29
2023-05-13T08:59:22.457Z,61.19
2023-05-13T09:00:22.486Z,61.19
2023-05-13T09:01:22.505Z,60.23
2023-05-13T09:02:22.463Z,60.32
2023-05-13T09:03:22.504Z,60.03
2023-05-13T09:04:22.538Z,60.42
2023-05-13T09:05:23.041Z,60.30
2023-05-13T09:06:22.585Z,61.25
2023-05-13T09:07:22.610Z,61.38
2023-05-13T09:08:22.632Z,61.07
2023-05-13T09:09:22.668Z,60.87
2023-05-13T09:10:22.707Z,61.29
2023-05-13T09:11:22.716Z,62.45
2023-05-13T09:12:22.756Z,62.25
2023-05-13T09:13:29.950Z,60.97
2023-05-13T09:15:27.308Z,62.15
2023-05-13T09:16:26.890Z,62.35
2023-05-13T09:18:19.899Z,62.15
2023-05-13T09:19:19.895Z,63.12
2023-05-13T09:21:24.848Z,64.28
2023-05-13T09:22:24.331Z,64.18
2023-05-13T09:23:24.353Z,65.53
2023-05-13T09:24:24.389Z,65.53
2023-05-13T09:25:24.834Z,67.00
2023-05-13T09:26:24.440Z,64.98
2023-05-13T09:27:24.469Z,64.31
2023-05-13T09:28:24.501Z,64.02
2023-05-13T09:29:24.567Z,62.38
2023-05-13T09:30:24.554Z,61.32
2023-05-13T09:31:24.654Z,60.35
2023-05-13T09:32:24.611Z,60.35
2023-05-13T09:33:24.642Z,60.26
2023-05-13T09:34:24.718Z,62.38
2023-05-13T09:35:24.697Z,61.61
2023-05-13T09:36:24.732Z,60.55
2023-05-13T09:37:24.757Z,60.35
2023-05-13T09:38:24.801Z,60.55
2023-05-13T09:39:24.895Z,61.99
2023-05-13T09:40:25.062Z,61.22
2023-05-13T09:41:24.877Z,60.55
2023-05-13T09:42:24.909Z,60.35
2023-05-13T09:43:24.940Z,60.83
2023-05-13T09:44:24.962Z,62.28
2023-05-13T09:45:25.008Z,62.09
2023-05-13T09:46:25.041Z,61.51
2023-05-13T09:47:25.061Z,61.90
2023-05-13T09:48:25.076Z,61.35
2023-05-13T09:49:25.142Z,60.26
2023-05-13T09:50:25.329Z,60.10
2023-05-13T09:51:25.160Z,60.19
2023-05-13T09:52:25.188Z,60.55
2023-05-13T09:53:25.235Z,60.38
2023-05-13T09:54:25.306Z,60.48
2023-05-13T09:55:25.282Z,61.64
2023-05-13T09:56:25.313Z,61.25
2023-05-13T09:57:25.345Z,62.60
2023-05-13T09:58:25.409Z,61.54
2023-05-13T09:59:25.422Z,60.19
2023-05-13T10:00:32.741Z,60.10
2023-05-13T10:01:25.546Z,60.19
2023-05-13T10:02:25.524Z,58.55
2023-05-13T10:03:25.559Z,58.26
2023-05-13T10:04:25.590Z,58.19
2023-05-13T10:05:25.575Z,58.36
2023-05-13T10:06:25.601Z,57.10
2023-05-13T10:07:25.660Z,57.78
2023-05-13T10:08:25.662Z,58.45
2023-05-13T10:09:25.687Z,58.75
2023-05-13T10:10:25.719Z,59.52
2023-05-13T10:11:25.779Z,60.77
2023-05-13T10:12:25.777Z,60.58
2023-05-13T10:13:25.808Z,61.64
2023-05-13T10:14:25.838Z,60.51
2023-05-13T10:15:25.865Z,59.42
2023-05-13T10:16:25.942Z,60.00
2023-05-13T10:17:25.961Z,60.31
2023-05-13T10:18:26.009Z,60.28
2023-05-13T10:19:26.003Z,59.32
2023-05-13T10:20:26.016Z,59.83
2023-05-13T10:21:26.044Z,60.13
2023-05-13T10:22:26.073Z,60.22
2023-05-13T10:23:26.102Z,59.45
2023-05-13T10:24:26.132Z,58.58
2023-05-13T10:25:26.158Z,58.58
2023-05-13T10:26:26.190Z,59.16
2023-05-13T10:27:26.218Z,57.10
2023-05-13T10:28:26.249Z,57.10
2023-05-13T10:29:26.275Z,57.39
2023-05-13T10:30:26.311Z,57.97
2023-05-13T10:31:26.398Z,58.26
2023-05-13T10:32:26.439Z,58.75
2023-05-13T10:33:26.391Z,58.55
2023-05-13T10:34:26.431Z,60.00
2023-05-13T10:35:26.449Z,60.96
2023-05-13T10:36:26.481Z,60.10
2023-05-13T10:37:26.502Z,60.10
2023-05-13T10:38:26.546Z,60.31
2023-05-13T10:39:26.567Z,60.31
2023-05-13T10:40:26.607Z,60.80
2023-05-13T10:41:26.629Z,59.74
2023-05-13T10:42:26.662Z,58.68
2023-05-13T10:43:26.681Z,57.52
2023-05-13T10:44:26.708Z,57.14
2023-05-13T10:45:26.739Z,56.16
2023-05-13T10:46:26.800Z,56.65
2023-05-13T10:47:26.858Z,57.23
2023-05-13T10:48:26.945Z,58.58
2023-05-13T10:49:26.862Z,58.68
2023-05-13T10:50:26.888Z,58.77
2023-05-13T10:51:26.916Z,59.06
2023-05-13T10:52:26.948Z,58.19
2023-05-13T10:53:26.984Z,58.10
2023-05-13T10:54:27.005Z,57.81
2023-05-13T10:55:27.068Z,57.97
2023-05-13T10:56:27.065Z,58.36
2023-05-13T10:57:27.092Z,58.97
2023-05-13T10:58:27.119Z,58.68
2023-05-13T10:59:27.151Z,58.77
2023-05-13T11:00:27.180Z,58.00
2023-05-13T11:01:27.249Z,57.71
2023-05-13T11:02:27.355Z,57.81
2023-05-13T11:03:29.087Z,57.71
2023-05-13T11:04:27.303Z,57.90
2023-05-13T11:05:27.342Z,58.97
2023-05-13T11:06:27.358Z,57.90
2023-05-13T11:07:27.386Z,58.10
2023-05-13T11:08:27.427Z,57.23
2023-05-13T11:09:27.452Z,58.48
2023-05-13T11:10:27.482Z,58.00
2023-05-13T11:11:27.558Z,58.39
2023-05-13T11:12:27.537Z,60.03
2023-05-13T11:13:27.623Z,59.35
2023-05-13T11:14:27.613Z,60.41
2023-05-13T11:15:27.624Z,59.38
2023-05-13T11:16:27.725Z,59.00
2023-05-13T11:17:27.700Z,58.39
2023-05-13T11:18:27.725Z,56.68
2023-05-13T11:19:27.760Z,56.65
2023-05-13T11:20:27.781Z,57.06
2023-05-13T11:21:27.803Z,56.74
2023-05-13T11:22:27.834Z,57.26
2023-05-13T11:23:27.862Z,56.39
2023-05-13T11:24:27.900Z,54.91
2023-05-13T11:25:27.929Z,56.46
2023-05-13T11:26:27.955Z,58.51
2023-05-13T11:27:27.984Z,58.22
2023-05-13T11:28:28.022Z,58.32
2023-05-13T11:29:28.043Z,58.70
2023-05-13T11:30:28.074Z,58.22
2023-05-13T11:31:28.158Z,58.22
2023-05-13T11:32:28.169Z,58.51
2023-05-13T11:33:28.157Z,58.32
2023-05-13T11:34:28.192Z,57.45
2023-05-13T11:35:28.229Z,57.64
2023-05-13T11:36:28.244Z,58.32
2023-05-13T11:37:28.275Z,56.48
2023-05-13T11:38:28.309Z,58.03
2023-05-13T11:39:28.338Z,58.90
2023-05-13T11:40:28.363Z,59.77
2023-05-13T11:41:28.395Z,59.67
2023-05-13T11:42:28.432Z,58.42
2023-05-13T11:43:28.453Z,58.32
2023-05-13T11:44:28.495Z,59.28
2023-05-13T11:45:28.516Z,59.48
2023-05-13T11:46:28.654Z,59.51
2023-05-13T11:47:28.618Z,58.83
2023-05-13T11:48:28.601Z,57.38
2023-05-13T11:49:28.632Z,56.90
2023-05-13T11:50:28.661Z,57.87
2023-05-13T11:51:28.693Z,56.80
2023-05-13T11:52:28.721Z,56.22
2023-05-13T11:53:28.846Z,56.51
2023-05-13T11:54:28.782Z,56.51
2023-05-13T11:55:28.813Z,57.16
2023-05-13T11:56:28.838Z,57.77
2023-05-13T11:57:28.873Z,58.12
2023-05-13T11:58:28.902Z,56.58
2023-05-13T11:59:35.752Z,56.10
2023-05-13T12:00:28.970Z,56.48
2023-05-13T12:01:28.997Z,56.48
2023-05-13T12:02:29.099Z,55.13
2023-05-13T12:03:29.081Z,56.03
2023-05-13T12:04:29.081Z,55.42
2023-05-13T12:05:29.197Z,57.16
2023-05-13T12:06:29.140Z,58.73
2023-05-13T12:07:29.174Z,57.87
2023-05-13T12:08:29.196Z,58.45
2023-05-13T12:09:29.239Z,57.38
2023-05-13T12:10:29.268Z,57.57
2023-05-13T12:11:29.292Z,56.41
2023-05-13T12:12:29.326Z,56.41
2023-05-13T12:13:29.358Z,58.25
2023-05-13T12:14:29.389Z,59.22
2023-05-13T12:15:29.413Z,57.96
2023-05-13T12:16:29.580Z,59.02
2023-05-13T12:17:29.522Z,58.37
2023-05-13T12:18:29.532Z,58.47
2023-05-13T12:19:29.529Z,57.79
2023-05-13T12:20:29.602Z,57.99
2023-05-13T12:21:29.588Z,56.93
2023-05-13T12:22:29.617Z,55.29
2023-05-13T12:23:29.651Z,54.13
2023-05-13T12:24:29.693Z,56.15
2023-05-13T12:25:29.716Z,56.25
2023-05-13T12:26:29.751Z,55.47
2023-05-13T12:27:29.772Z,55.57
2023-05-13T12:28:29.801Z,54.99
2023-05-13T12:29:29.827Z,54.90
2023-05-13T12:30:29.868Z,56.61
2023-05-13T12:31:29.957Z,57.21
2023-05-13T12:32:29.950Z,57.31
2023-05-13T12:33:29.982Z,56.80
2023-05-13T12:34:29.980Z,56.71
2023-05-13T12:35:30.012Z,55.74
2023-05-13T12:36:30.075Z,55.26
2023-05-13T12:37:30.068Z,55.26
2023-05-13T12:38:30.098Z,55.07
2023-05-13T12:39:30.125Z,54.99
2023-05-13T12:40:30.172Z,54.22
2023-05-13T12:41:30.188Z,54.22
2023-05-13T12:42:30.230Z,53.55
2023-05-13T12:43:30.253Z,52.48
2023-05-13T12:44:30.281Z,52.29
2023-05-13T12:45:30.313Z,51.35
2023-05-13T12:46:30.390Z,50.96
2023-05-13T12:47:30.393Z,51.32
2023-05-13T12:48:30.402Z,50.38
2023-05-13T12:49:30.435Z,49.70
2023-05-13T12:50:30.459Z,49.80
2023-05-13T12:51:30.505Z,50.48
2023-05-13T12:52:30.521Z,49.22
2023-05-13T12:53:30.553Z,49.60
2023-05-13T12:54:30.582Z,50.86
2023-05-13T12:55:30.613Z,51.64